Aviation Digital Data Service (ADDS)

Output produced by METARs form (1840 UTC 18 June 2019)
found at http://www.aviationweather.gov/metar/data/
 
MRLB 181800Z 08011KT 9999 BKN045 33/24 A2979 NOSIG
MRLB 181700Z 1818/1918 30008KT 9999 FEW045 TX33/1819Z TN23/1911Z 
     BECMG 1819/1821 08012KT 
     TEMPO 1905/1912 22003KT
       
MRPV 181800Z 08016KT 9999 FEW045 28/18 A3000 NOSIG
MRPV 181700Z 1818/1918 09013KT 9999 FEW035 TX28/1818Z TN20/1909Z
       
MRLM 181800Z 10004KT 9999 -DZ FEW015 BKN100 29/26 A2986
MRLM 181700Z 1818/1918 07006KT 9999 FEW020 SCT120 TX31/1818Z TN23/1911Z 
     BECMG 1900/1902 25004KT 
     TEMPO 1909/1913 RA BKN020 
     BECMG 1914/1916 05006KT
       
MROC 181800Z 11013KT 080V140 9999 FEW040 SCT110 29/20 A2996 NOSIG
MROC 181700Z 1818/1918 09011KT 9999 FEW035 TX30/1819Z TN21/1911Z 
     TEMPO 1820/1823 26006KT